Time;durP1;ratioP1;P1;durP2;ratioP2;P2;SDS_P1;SDS_P2;PMS_P1;PMS_P2;Temp;Humidity;BMP_temperature;BMP_pressure;BME280_temperature;BME280_humidity;BME280_pressure;Samples;Min_cycle;Max_cycle;Signal;HPM_P1;HPM_P2
2023/03/29 00:00:39;;;;;;;5.90;3.03;;;5.90;99.90;;;;;;6143405;23;20203;-69
2023/03/29 00:03:04;;;;;;;3.03;2.43;;;5.90;99.90;;;;;;6139884;23;20230;-67
2023/03/29 00:05:33;;;;;;;4.27;2.57;;;5.90;99.90;;;;;;6141076;23;20143;-68
2023/03/29 00:08:02;;;;;;;4.63;2.47;;;5.90;99.90;;;;;;6140153;23;20216;-69
2023/03/29 00:10:30;;;;;;;7.60;3.07;;;5.90;99.90;;;;;;6139208;23;20380;-67
2023/03/29 00:12:56;;;;;;;4.27;3.13;;;5.90;99.90;;;;;;6140492;23;20502;-67
2023/03/29 00:15:22;;;;;;;5.13;2.37;;;5.90;99.90;;;;;;6140031;23;20423;-68
2023/03/29 00:17:47;;;;;;;4.60;2.60;;;5.90;99.90;;;;;;6128816;23;20815;-69
2023/03/29 00:20:13;;;;;;;5.43;2.87;;;5.90;99.90;;;;;;6139497;23;20403;-68
2023/03/29 00:22:40;;;;;;;5.23;2.20;;;5.90;99.90;;;;;;6139262;23;20159;-68
2023/03/29 00:25:07;;;;;;;6.60;2.50;;;5.90;99.90;;;;;;6139359;23;20136;-68
2023/03/29 00:27:33;;;;;;;3.60;2.47;;;5.90;99.90;;;;;;6138949;23;20450;-67
2023/03/29 00:30:01;;;;;;;5.00;2.37;;;5.90;99.90;;;;;;6142148;23;20371;-68
2023/03/29 00:32:26;;;;;;;6.87;3.53;;;5.90;99.90;;;;;;6129510;23;20396;-68
2023/03/29 00:34:53;;;;;;;5.53;2.63;;;5.90;99.90;;;;;;6138824;23;20891;-68
2023/03/29 00:37:19;;;;;;;3.67;2.57;;;5.90;99.90;;;;;;6139349;23;20137;-67
2023/03/29 00:39:45;;;;;;;5.10;2.50;;;5.90;99.90;;;;;;6130850;23;20414;-68
2023/03/29 00:42:13;;;;;;;5.87;3.47;;;5.90;99.90;;;;;;6131909;23;20195;-67
2023/03/29 00:45:05;;;;;;;4.13;2.77;;;6.00;99.90;;;;;;6139245;23;20394;-67
2023/03/29 00:47:34;;;;;;;3.97;2.30;;;6.00;99.90;;;;;;6139344;23;20488;-69
2023/03/29 00:50:17;;;;;;;3.83;2.37;;;6.00;99.90;;;;;;6139648;23;20447;-68
2023/03/29 00:52:50;;;;;;;3.10;2.70;;;6.00;99.90;;;;;;6130036;23;20486;-68
2023/03/29 00:55:20;;;;;;;5.90;2.73;;;5.90;99.90;;;;;;6139627;23;20427;-68
2023/03/29 00:57:48;;;;;;;3.83;3.07;;;6.00;99.90;;;;;;6137757;23;20360;-69
2023/03/29 01:00:19;;;;;;;3.47;2.10;;;6.00;99.90;;;;;;6139516;23;20375;-67
2023/03/29 01:02:54;;;;;;;4.63;2.97;;;5.90;99.90;;;;;;6138944;23;20637;-67
2023/03/29 01:05:43;;;;;;;3.97;2.43;;;6.00;99.90;;;;;;6128517;23;20380;-68
2023/03/29 01:08:16;;;;;;;5.07;2.57;;;5.90;99.90;;;;;;6149099;23;20372;-68
2023/03/29 01:10:49;;;;;;;3.00;2.70;;;5.90;99.90;;;;;;6132882;23;20459;-68
2023/03/29 01:13:26;;;;;;;3.30;2.20;;;5.90;99.90;;;;;;6133953;23;20431;-66
2023/03/29 01:15:55;;;;;;;4.60;2.67;;;5.90;99.90;;;;;;6130310;23;20700;-68
2023/03/29 01:18:21;;;;;;;6.03;2.83;;;5.90;99.90;;;;;;6127810;23;20372;-68
2023/03/29 01:21:08;;;;;;;6.70;3.03;;;6.00;99.90;;;;;;6139758;23;20376;-67
2023/03/29 01:23:47;;;;;;;3.13;2.47;;;5.90;99.90;;;;;;6129256;23;20508;-67
2023/03/29 01:26:33;;;;;;;3.40;2.60;;;6.00;99.90;;;;;;6138784;23;20379;-68
2023/03/29 01:29:20;;;;;;;3.63;2.67;;;6.00;99.90;;;;;;6138889;23;20376;-67
2023/03/29 01:31:51;;;;;;;3.13;2.43;;;6.00;99.90;;;;;;6128284;23;20758;-67
2023/03/29 01:34:26;;;;;;;2.83;2.07;;;6.00;99.90;;;;;;6139240;23;20414;-68
2023/03/29 01:36:59;;;;;;;6.63;2.23;;;6.00;99.90;;;;;;6127589;23;20476;-67
2023/03/29 01:39:25;;;;;;;5.87;2.80;;;6.00;99.90;;;;;;6127643;23;20443;-66
2023/03/29 01:42:04;;;;;;;2.80;2.37;;;6.00;99.90;;;;;;6132943;23;20431;-68
2023/03/29 01:44:38;;;;;;;2.97;1.97;;;6.10;99.90;;;;;;6128004;23;20435;-68
2023/03/29 01:47:20;;;;;;;2.80;2.30;;;6.10;99.90;;;;;;6127746;23;20392;-68
2023/03/29 01:50:16;;;;;;;3.27;2.13;;;6.10;99.90;;;;;;6127471;23;20386;-67
2023/03/29 01:52:50;;;;;;;3.60;2.37;;;6.10;99.90;;;;;;6150220;23;20829;-67
2023/03/29 01:55:31;;;;;;;5.00;3.50;;;6.10;99.90;;;;;;6138944;23;20363;-67
2023/03/29 01:58:00;;;;;;;3.97;2.70;;;6.10;99.90;;;;;;6138622;23;20408;-67
2023/03/29 02:00:28;;;;;;;3.33;2.53;;;6.10;99.90;;;;;;6140667;23;20683;-68
2023/03/29 02:02:58;;;;;;;3.73;2.87;;;6.10;99.90;;;;;;6140063;23;20391;-68
2023/03/29 02:05:27;;;;;;;5.87;3.37;;;6.10;99.90;;;;;;6128048;23;20388;-69
2023/03/29 02:07:59;;;;;;;4.03;2.30;;;6.20;99.90;;;;;;6127978;23;20649;-68
2023/03/29 02:10:25;;;;;;;4.60;3.00;;;6.20;99.90;;;;;;6103488;23;20827;-66
2023/03/29 02:12:51;;;;;;;5.60;2.90;;;6.20;99.90;;;;;;6125942;23;20908;-67
2023/03/29 02:15:19;;;;;;;5.93;2.80;;;6.20;99.90;;;;;;6127679;23;20372;-69
2023/03/29 02:17:46;;;;;;;3.47;2.67;;;6.20;99.90;;;;;;6127635;23;20509;-69
2023/03/29 02:20:26;;;;;;;5.50;2.50;;;6.30;99.90;;;;;;6139313;23;20402;-67
2023/03/29 02:23:13;;;;;;;4.60;2.63;;;6.30;99.90;;;;;;6137281;23;20419;-68
2023/03/29 02:25:40;;;;;;;4.90;2.97;;;6.30;99.90;;;;;;6138635;23;20645;-67
2023/03/29 02:28:06;;;;;;;3.83;3.03;;;6.30;99.90;;;;;;6137529;23;20852;-69
2023/03/29 02:30:54;;;;;;;5.67;3.30;;;6.30;99.90;;;;;;6127561;23;20821;-68
2023/03/29 02:33:37;;;;;;;5.77;3.90;;;6.20;99.90;;;;;;6127528;23;20422;-69
2023/03/29 02:36:10;;;;;;;5.27;3.30;;;6.20;99.90;;;;;;6127468;23;20396;-68
2023/03/29 02:38:37;;;;;;;9.73;4.20;;;6.30;99.90;;;;;;6138380;23;20382;-68
2023/03/29 02:41:04;;;;;;;4.30;2.90;;;6.30;99.90;;;;;;6136271;23;20396;-67
2023/03/29 02:43:33;;;;;;;3.03;2.57;;;6.20;99.90;;;;;;6127133;23;20371;-68
2023/03/29 02:45:59;;;;;;;4.23;2.47;;;6.20;99.90;;;;;;6127704;23;20372;-68
2023/03/29 02:48:27;;;;;;;3.73;2.53;;;6.20;99.90;;;;;;6138819;23;20376;-68
2023/03/29 02:50:57;;;;;;;3.50;3.20;;;6.30;99.90;;;;;;6103430;23;20410;-68
2023/03/29 02:53:27;;;;;;;4.07;3.57;;;6.30;99.90;;;;;;6129156;23;20775;-68
2023/03/29 02:55:54;;;;;;;3.73;2.93;;;6.30;99.90;;;;;;6128916;23;20406;-67
2023/03/29 02:58:27;;;;;;;4.07;2.73;;;6.30;99.90;;;;;;6141853;23;20374;-67
2023/03/29 03:00:54;;;;;;;4.53;2.80;;;6.30;99.90;;;;;;6129314;23;20414;-68
2023/03/29 03:03:20;;;;;;;5.20;2.80;;;6.30;99.90;;;;;;6141116;23;20451;-68
2023/03/29 03:05:48;;;;;;;3.63;2.13;;;6.40;99.90;;;;;;6128793;23;20395;-68
2023/03/29 03:08:14;;;;;;;4.97;3.27;;;6.30;99.90;;;;;;6140366;23;20462;-68
2023/03/29 03:10:40;;;;;;;3.47;2.60;;;6.30;99.90;;;;;;6129371;23;20140;-68
2023/03/29 03:13:06;;;;;;;2.43;2.07;;;6.40;99.90;;;;;;6128247;23;20500;-67
2023/03/29 03:15:34;;;;;;;3.83;2.77;;;6.40;99.90;;;;;;6128818;23;20419;-68
2023/03/29 03:18:02;;;;;;;3.10;1.70;;;6.40;99.90;;;;;;6140341;23;20660;-67
2023/03/29 03:20:28;;;;;;;2.63;2.23;;;6.40;99.90;;;;;;6129611;23;20622;-67
2023/03/29 03:22:56;;;;;;;2.70;2.33;;;6.40;99.90;;;;;;6128880;23;20407;-68
2023/03/29 03:25:22;;;;;;;4.80;2.40;;;6.40;99.90;;;;;;6128845;23;20375;-67
2023/03/29 03:27:49;;;;;;;2.97;2.40;;;6.40;99.90;;;;;;6129532;23;20379;-68
2023/03/29 03:30:17;;;;;;;3.20;2.37;;;6.50;99.90;;;;;;6127941;23;20391;-68
2023/03/29 03:33:02;;;;;;;3.77;2.37;;;6.50;99.90;;;;;;6133692;23;20487;-69
2023/03/29 03:35:41;;;;;;;4.20;2.83;;;6.50;99.90;;;;;;6141249;23;20368;-67
2023/03/29 03:38:07;;;;;;;5.20;3.00;;;6.60;99.90;;;;;;6129793;23;20391;-68
2023/03/29 03:40:33;;;;;;;4.47;2.67;;;6.60;99.90;;;;;;6132092;23;20423;-68
2023/03/29 03:42:59;;;;;;;3.97;2.77;;;6.60;99.90;;;;;;6128135;23;20396;-67
2023/03/29 03:45:25;;;;;;;3.63;2.40;;;6.70;99.90;;;;;;6128787;23;20513;-67
2023/03/29 03:47:57;;;;;;;4.90;3.07;;;6.70;99.90;;;;;;6127834;23;20410;-67
2023/03/29 03:50:32;;;;;;;3.63;2.67;;;6.70;99.90;;;;;;6128353;23;20391;-67
2023/03/29 03:52:58;;;;;;;5.07;3.40;;;6.70;99.90;;;;;;6104517;23;20705;-67
2023/03/29 03:55:25;;;;;;;3.57;3.00;;;6.60;99.90;;;;;;6128963;23;20379;-67
2023/03/29 03:58:01;;;;;;;4.17;2.87;;;6.70;99.90;;;;;;6128388;23;20391;-68
2023/03/29 04:00:28;;;;;;;6.70;2.87;;;6.70;99.90;;;;;;6129154;23;20617;-68
2023/03/29 04:03:10;;;;;;;6.13;3.37;;;6.70;99.90;;;;;;6110373;23;20226;-67
2023/03/29 04:05:40;;;;;;;5.27;3.10;;;6.70;99.90;;;;;;6131805;23;20388;-68
2023/03/29 04:08:07;;;;;;;4.73;3.00;;;6.80;99.90;;;;;;6130731;23;20478;-68
2023/03/29 04:10:57;;;;;;;4.83;3.60;;;6.80;99.90;;;;;;6139909;23;20439;-68
2023/03/29 04:13:28;;;;;;;6.40;2.77;;;6.70;99.90;;;;;;6132981;23;20740;-68
2023/03/29 04:16:11;;;;;;;6.10;2.90;;;6.70;99.90;;;;;;6131455;23;20458;-68
2023/03/29 04:18:37;;;;;;;4.73;2.80;;;6.80;99.90;;;;;;6131798;23;20658;-68
2023/03/29 04:21:03;;;;;;;7.23;3.43;;;6.70;99.90;;;;;;6131399;23;20372;-67
2023/03/29 04:23:31;;;;;;;3.60;2.60;;;6.70;99.90;;;;;;6130781;23;20186;-69
2023/03/29 04:25:57;;;;;;;4.00;3.00;;;6.70;99.90;;;;;;6131574;23;20388;-69
2023/03/29 04:28:41;;;;;;;2.90;2.57;;;6.70;99.90;;;;;;6130951;23;20156;-68
2023/03/29 04:31:18;;;;;;;4.60;2.83;;;6.80;99.90;;;;;;6131790;23;20891;-69
2023/03/29 04:33:50;;;;;;;3.27;2.97;;;6.80;99.90;;;;;;6132897;23;20502;-66
2023/03/29 04:36:16;;;;;;;3.47;2.47;;;6.80;99.90;;;;;;6134224;23;20402;-70
2023/03/29 04:38:42;;;;;;;4.73;2.97;;;6.80;99.90;;;;;;6131812;23;20398;-68
2023/03/29 04:41:08;;;;;;;3.33;2.40;;;6.80;99.90;;;;;;6132393;23;20395;-68
2023/03/29 04:43:52;;;;;;;2.07;1.87;;;6.80;99.90;;;;;;6130761;23;20390;-68
2023/03/29 04:46:26;;;;;;;5.90;3.03;;;6.80;99.90;;;;;;6131526;23;20388;-69
2023/03/29 04:49:11;;;;;;;3.73;3.30;;;6.90;99.90;;;;;;6133017;23;20680;-67
2023/03/29 04:51:39;;;;;;;10.27;2.93;;;6.90;99.90;;;;;;6107795;23;20403;-68
2023/03/29 04:54:05;;;;;;;4.07;3.33;;;6.90;99.90;;;;;;6132788;23;20824;-68
2023/03/29 04:56:43;;;;;;;5.70;2.63;;;6.90;99.90;;;;;;6133943;23;20593;-69
2023/03/29 04:59:33;;;;;;;3.83;2.33;;;7.00;99.90;;;;;;6129579;23;20387;-69
2023/03/29 05:02:02;;;;;;;6.50;2.60;;;7.00;99.90;;;;;;6133963;23;20403;-70
2023/03/29 05:04:28;;;;;;;3.43;3.10;;;6.90;99.90;;;;;;6144791;23;20430;-70
2023/03/29 05:07:03;;;;;;;6.20;2.93;;;6.90;99.90;;;;;;6136249;23;20397;-70
2023/03/29 05:09:29;;;;;;;5.80;2.40;;;6.90;99.90;;;;;;6135230;23;20674;-70
2023/03/29 05:11:55;;;;;;;7.20;3.27;;;6.90;99.90;;;;;;6136854;23;20274;-70
2023/03/29 05:14:22;;;;;;;3.60;2.30;;;7.00;99.90;;;;;;6137026;23;20482;-69
2023/03/29 05:16:49;;;;;;;3.40;2.20;;;7.00;99.90;;;;;;6111270;23;20455;-71
2023/03/29 05:19:15;;;;;;;5.13;2.60;;;6.90;99.90;;;;;;6109032;23;20747;-69
2023/03/29 05:21:45;;;;;;;3.80;2.60;;;7.00;99.90;;;;;;6134808;23;20404;-70
2023/03/29 05:24:15;;;;;;;3.83;3.37;;;7.00;99.90;;;;;;6138856;23;20391;-71
2023/03/29 05:26:50;;;;;;;2.53;2.13;;;7.00;99.90;;;;;;6142262;23;20557;-69
2023/03/29 05:29:17;;;;;;;3.53;2.57;;;7.10;99.90;;;;;;6143380;23;20483;-68
2023/03/29 05:31:48;;;;;;;3.87;2.20;;;7.10;99.90;;;;;;6138564;23;20418;-68
2023/03/29 05:34:14;;;;;;;3.73;2.43;;;7.10;99.90;;;;;;6137474;23;20438;-71
2023/03/29 05:36:45;;;;;;;4.40;3.17;;;7.10;99.90;;;;;;6135113;23;20388;-70
2023/03/29 05:39:11;;;;;;;5.17;3.10;;;7.20;99.90;;;;;;6112243;23;20458;-72
2023/03/29 05:41:38;;;;;;;4.90;2.90;;;7.20;99.90;;;;;;6134863;23;20406;-70
2023/03/29 05:44:22;;;;;;;4.30;2.90;;;7.20;99.90;;;;;;6138614;23;20387;-71
2023/03/29 05:46:53;;;;;;;5.87;2.97;;;7.20;99.90;;;;;;6116814;23;20388;-72
2023/03/29 05:49:18;;;;;;;4.57;2.80;;;7.30;99.90;;;;;;6138709;23;20674;-70
2023/03/29 05:51:55;;;;;;;3.30;2.60;;;7.30;99.90;;;;;;6136601;23;20254;-70
2023/03/29 05:54:23;;;;;;;3.73;3.00;;;7.40;99.90;;;;;;6136587;23;20423;-70
2023/03/29 05:56:49;;;;;;;4.10;3.03;;;7.40;99.90;;;;;;6139194;23;20789;-71
2023/03/29 05:59:16;;;;;;;4.27;3.00;;;7.40;99.90;;;;;;6138811;23;20372;-70
2023/03/29 06:01:45;;;;;;;5.10;2.37;;;7.50;99.90;;;;;;6139388;23;20426;-71
2023/03/29 06:04:13;;;;;;;4.00;2.80;;;7.50;99.90;;;;;;6137316;23;20380;-72
2023/03/29 06:06:59;;;;;;;5.33;2.70;;;7.50;99.90;;;;;;6118028;23;20458;-69
2023/03/29 06:09:25;;;;;;;5.20;3.07;;;7.60;99.90;;;;;;6138654;23;20380;-69
2023/03/29 06:11:58;;;;;;;4.03;2.70;;;7.60;99.90;;;;;;6113559;23;20474;-71
2023/03/29 06:14:33;;;;;;;5.23;3.10;;;7.60;99.90;;;;;;6136232;23;20434;-70
2023/03/29 06:17:25;;;;;;;4.77;3.83;;;7.70;99.90;;;;;;6140258;23;20435;-71
2023/03/29 06:19:52;;;;;;;6.57;4.20;;;7.70;99.90;;;;;;6137294;23;20376;-73
2023/03/29 06:22:19;;;;;;;2.50;2.30;;;7.70;99.90;;;;;;6139180;23;20483;-71
2023/03/29 06:24:45;;;;;;;6.80;3.07;;;7.70;99.90;;;;;;6139667;23;20376;-72
2023/03/29 06:27:21;;;;;;;5.70;3.10;;;7.70;99.90;;;;;;6118240;23;20379;-69
2023/03/29 06:29:47;;;;;;;5.43;2.83;;;7.80;99.90;;;;;;6141106;23;20403;-69
2023/03/29 06:32:34;;;;;;;3.17;2.40;;;7.80;99.90;;;;;;6140981;23;20183;-71
2023/03/29 06:35:08;;;;;;;3.67;2.93;;;7.90;99.90;;;;;;6141145;23;20499;-71
2023/03/29 06:37:48;;;;;;;4.30;2.67;;;7.90;99.90;;;;;;6120602;23;20379;-71
2023/03/29 06:40:37;;;;;;;5.20;3.27;;;7.90;99.90;;;;;;6141518;23;20392;-70
2023/03/29 06:43:05;;;;;;;8.87;3.57;;;7.90;99.90;;;;;;6118771;23;20439;-71
2023/03/29 06:46:10;;;;;;;7.53;3.40;;;8.00;99.90;;;;;;6150531;23;20386;-71
2023/03/29 06:48:49;;;;;;;4.33;2.83;;;8.10;99.30;;;;;;6121700;23;20376;-71
2023/03/29 06:51:15;;;;;;;7.20;3.30;;;8.20;98.90;;;;;;6142303;23;20411;-71
2023/03/29 06:53:41;;;;;;;4.13;2.53;;;8.20;98.50;;;;;;6117863;23;20441;-69
2023/03/29 06:56:08;;;;;;;5.50;2.60;;;8.30;98.60;;;;;;6156967;23;20367;-71
2023/03/29 06:58:39;;;;;;;7.10;3.43;;;8.50;98.30;;;;;;6101479;23;20160;-73
2023/03/29 07:01:24;;;;;;;4.97;2.67;;;8.50;98.10;;;;;;6122055;23;20411;-72
2023/03/29 07:03:59;;;;;;;7.13;2.90;;;8.60;97.60;;;;;;6116306;23;20422;-72
2023/03/29 07:06:30;;;;;;;2.07;1.87;;;8.70;97.30;;;;;;6117486;23;20391;-71
2023/03/29 07:09:00;;;;;;;5.17;2.50;;;8.70;97.10;;;;;;6139764;23;20710;-71
2023/03/29 07:11:49;;;;;;;8.37;3.27;;;8.80;96.30;;;;;;6136639;23;20868;-72
2023/03/29 07:14:21;;;;;;;3.63;2.17;;;8.90;95.40;;;;;;6139903;23;20442;-69
2023/03/29 07:16:50;;;;;;;3.43;2.57;;;9.00;95.70;;;;;;6139809;23;20395;-72
2023/03/29 07:19:24;;;;;;;6.00;3.30;;;9.10;95.90;;;;;;6141640;23;20379;-72
2023/03/29 07:21:52;;;;;;;4.60;3.17;;;9.30;95.20;;;;;;6150929;23;20407;-72
2023/03/29 07:24:21;;;;;;;5.10;2.33;;;9.40;94.20;;;;;;6090840;23;20380;-71
2023/03/29 07:26:47;;;;;;;3.57;2.37;;;9.40;94.60;;;;;;6151538;23;20383;-70
2023/03/29 07:29:14;;;;;;;5.40;3.30;;;9.40;94.50;;;;;;6151480;23;20455;-73
2023/03/29 07:31:42;;;;;;;3.80;2.67;;;9.30;94.40;;;;;;6141013;23;20411;-71
2023/03/29 07:34:28;;;;;;;5.10;2.03;;;9.20;94.50;;;;;;6138413;23;20423;-71
2023/03/29 07:36:55;;;;;;;5.10;2.50;;;9.20;95.40;;;;;;6118118;23;20454;-71
2023/03/29 07:39:21;;;;;;;4.40;2.70;;;9.30;95.50;;;;;;6141653;23;20419;-72
2023/03/29 07:42:06;;;;;;;6.00;2.97;;;9.20;95.50;;;;;;6139348;23;20438;-72
2023/03/29 07:44:32;;;;;;;6.30;3.00;;;9.30;95.00;;;;;;6140774;23;20808;-72
2023/03/29 07:47:01;;;;;;;3.27;2.60;;;9.50;94.80;;;;;;6114867;23;20463;-72
2023/03/29 07:49:29;;;;;;;3.13;2.60;;;9.50;94.20;;;;;;6152192;23;20136;-74
2023/03/29 07:51:55;;;;;;;6.90;3.40;;;9.70;94.20;;;;;;6141375;23;20412;-70
2023/03/29 07:54:22;;;;;;;3.97;2.87;;;9.80;93.70;;;;;;6142767;23;20419;-71
2023/03/29 07:56:55;;;;;;;4.90;3.10;;;9.90;92.70;;;;;;6117291;23;20379;-71
2023/03/29 07:59:30;;;;;;;6.00;3.00;;;9.90;91.60;;;;;;6140080;23;20383;-72
2023/03/29 08:02:09;;;;;;;3.43;2.93;;;10.00;91.20;;;;;;6141418;23;20403;-72
2023/03/29 08:04:39;;;;;;;4.90;2.97;;;10.10;91.20;;;;;;6140927;23;20383;-71
2023/03/29 08:07:33;;;;;;;4.67;2.97;;;10.20;90.50;;;;;;6143093;23;20387;-70
2023/03/29 08:10:07;;;;;;;2.90;2.50;;;10.30;90.20;;;;;;6152873;23;20372;-72
2023/03/29 08:12:51;;;;;;;2.63;1.90;;;10.30;89.70;;;;;;6118794;23;20875;-70
2023/03/29 08:15:19;;;;;;;5.43;4.10;;;10.40;90.10;;;;;;6144120;23;20384;-71
2023/03/29 08:17:46;;;;;;;5.10;3.90;;;10.60;90.00;;;;;;6155244;23;20379;-73
2023/03/29 08:20:15;;;;;;;5.23;3.43;;;10.80;88.20;;;;;;6144514;23;20408;-71
2023/03/29 08:22:43;;;;;;;5.60;2.70;;;11.00;85.90;;;;;;6117599;23;20172;-69
2023/03/29 08:25:09;;;;;;;6.07;3.33;;;11.20;84.60;;;;;;6151587;23;20467;-73
2023/03/29 08:27:41;;;;;;;6.63;3.73;;;11.30;83.10;;;;;;6117811;23;20426;-72
2023/03/29 08:30:09;;;;;;;7.40;3.20;;;11.50;80.90;;;;;;6151812;23;20359;-73
2023/03/29 08:32:37;;;;;;;8.37;3.40;;;11.60;79.40;;;;;;6141484;23;20916;-71
2023/03/29 08:35:08;;;;;;;6.60;2.80;;;11.80;78.20;;;;;;6144356;23;20504;-71
2023/03/29 08:37:53;;;;;;;4.03;2.47;;;11.90;77.20;;;;;;6120120;23;20398;-71
2023/03/29 08:40:28;;;;;;;3.67;2.50;;;11.90;76.60;;;;;;6142099;23;20835;-72
2023/03/29 08:43:24;;;;;;;3.03;1.90;;;11.80;76.60;;;;;;6143246;23;20415;-72
2023/03/29 08:46:33;;;;;;;5.40;3.30;;;11.70;78.20;;;;;;6141542;23;20388;-72
2023/03/29 08:49:08;;;;;;;3.90;2.87;;;11.60;79.00;;;;;;6144007;23;20422;-72
2023/03/29 08:51:46;;;;;;;10.73;5.70;;;11.50;80.50;;;;;;6116214;23;20423;-71
2023/03/29 08:54:17;;;;;;;4.70;2.90;;;11.50;79.70;;;;;;6134628;23;20411;-40
2023/03/29 08:57:32;;;;;;;5.83;3.30;;;11.50;81.00;;;;;;6108365;23;20687;-39
2023/03/29 09:00:05;;;;;;;3.33;3.03;;;11.60;80.50;;;;;;6132480;23;20418;-71
2023/03/29 09:02:36;;;;;;;3.83;2.93;;;11.50;80.10;;;;;;6118289;23;20431;-71
2023/03/29 09:05:24;;;;;;;3.40;2.40;;;11.60;80.90;;;;;;6119194;23;20434;-73
2023/03/29 09:08:00;;;;;;;6.87;3.40;;;11.60;81.20;;;;;;6158013;23;20375;-72
2023/03/29 09:10:43;;;;;;;5.27;3.10;;;11.50;81.50;;;;;;6102464;23;20392;-72
2023/03/29 09:13:10;;;;;;;2.97;2.57;;;11.50;80.80;;;;;;6102012;23;20415;-72
2023/03/29 09:16:04;;;;;;;5.37;3.47;;;11.60;81.10;;;;;;6149150;23;20383;-73
2023/03/29 09:19:15;;;;;;;5.30;4.00;;;11.50;80.20;;;;;;6123635;23;20380;-71
2023/03/29 09:22:07;;;;;;;5.37;2.50;;;11.60;81.80;;;;;;6117933;23;20404;-72
2023/03/29 09:24:57;;;;;;;4.53;3.00;;;11.60;82.00;;;;;;6118941;23;20670;-71
2023/03/29 09:27:52;;;;;;;6.50;3.53;;;11.70;82.40;;;;;;6118511;23;20388;-72
2023/03/29 09:31:02;;;;;;;5.33;3.20;;;11.60;82.50;;;;;;6056208;23;20389;-72
2023/03/29 09:34:04;;;;;;;3.87;2.70;;;11.60;84.30;;;;;;6032825;23;20452;-72
2023/03/29 09:36:57;;;;;;;5.20;4.17;;;11.70;83.70;;;;;;6036207;23;20694;-72
2023/03/29 09:39:27;;;;;;;4.47;2.93;;;11.70;82.50;;;;;;6011480;23;20382;-70
2023/03/29 09:42:03;;;;;;;3.23;2.80;;;11.70;83.30;;;;;;6028361;23;20411;-70
2023/03/29 09:44:34;;;;;;;4.77;3.50;;;11.80;84.00;;;;;;6056423;23;20409;-71
2023/03/29 09:47:22;;;;;;;4.10;2.87;;;11.80;83.50;;;;;;6053081;23;20382;-73
2023/03/29 09:49:56;;;;;;;5.27;2.80;;;11.90;83.40;;;;;;6030359;23;20375;-70
2023/03/29 09:52:22;;;;;;;7.47;4.57;;;11.90;82.70;;;;;;6061937;23;20398;-70
2023/03/29 09:55:05;;;;;;;5.03;3.57;;;11.90;82.10;;;;;;6049749;23;20430;-70
2023/03/29 09:57:40;;;;;;;5.73;3.00;;;11.80;83.40;;;;;;6053682;23;20425;-69
2023/03/29 10:00:09;;;;;;;3.77;2.43;;;11.90;84.30;;;;;;6053553;23;20399;-70
2023/03/29 10:02:39;;;;;;;5.03;3.13;;;12.00;84.40;;;;;;6055206;23;20382;-71
2023/03/29 10:05:08;;;;;;;6.67;4.67;;;12.10;83.00;;;;;;6053287;23;20394;-70
2023/03/29 10:07:45;;;;;;;4.77;3.33;;;12.20;82.90;;;;;;6109905;23;20419;-72
2023/03/29 10:10:31;;;;;;;4.00;3.20;;;12.30;82.50;;;;;;6120580;23;20408;-71
2023/03/29 10:13:02;;;;;;;8.13;3.60;;;12.40;81.80;;;;;;6119054;23;20429;-71
2023/03/29 10:15:29;;;;;;;5.27;3.70;;;12.50;80.70;;;;;;6120020;23;20401;-73
2023/03/29 10:18:06;;;;;;;8.63;3.20;;;12.60;78.30;;;;;;6144458;23;20422;-73
2023/03/29 10:20:37;;;;;;;6.43;3.13;;;12.70;78.40;;;;;;6117716;23;20671;-73
2023/03/29 10:23:07;;;;;;;8.70;6.90;;;12.80;77.70;;;;;;6120286;23;20408;-71
2023/03/29 10:25:39;;;;;;;5.67;3.47;;;12.80;76.80;;;;;;6091895;23;20426;-71
2023/03/29 10:28:15;;;;;;;5.90;3.40;;;12.80;77.50;;;;;;6144868;23;20384;-73
2023/03/29 10:30:41;;;;;;;4.53;2.60;;;12.90;78.00;;;;;;6148268;23;20380;-73
2023/03/29 10:33:29;;;;;;;5.57;2.87;;;12.90;78.40;;;;;;6145867;23;20415;-72
2023/03/29 10:35:56;;;;;;;5.70;2.90;;;13.20;77.40;;;;;;6141898;23;20488;-71
2023/03/29 10:38:26;;;;;;;3.37;2.33;;;13.40;76.20;;;;;;6142084;23;20373;-70
2023/03/29 10:40:53;;;;;;;3.77;2.80;;;13.80;75.10;;;;;;6118389;23;20380;-71
2023/03/29 10:43:31;;;;;;;6.07;3.17;;;14.00;72.30;;;;;;6145039;23;20379;-71
2023/03/29 10:46:12;;;;;;;9.17;3.40;;;14.40;69.80;;;;;;6146891;23;20450;-71
2023/03/29 10:48:39;;;;;;;10.13;4.10;;;14.70;66.90;;;;;;6123101;23;20422;-71
2023/03/29 10:51:06;;;;;;;4.97;3.50;;;14.90;66.10;;;;;;6144972;23;20435;-72
2023/03/29 10:53:36;;;;;;;5.10;3.27;;;15.00;64.30;;;;;;6119840;23;20416;-71
2023/03/29 10:56:40;;;;;;;5.43;3.27;;;15.20;62.20;;;;;;6149427;23;20375;-72
2023/03/29 10:59:08;;;;;;;5.63;3.70;;;15.30;60.50;;;;;;6052547;23;20465;-72
2023/03/29 11:02:06;;;;;;;8.07;3.47;;;15.50;60.90;;;;;;6027854;23;20474;-71
2023/03/29 11:04:59;;;;;;;5.27;3.53;;;15.60;59.60;;;;;;6029580;23;20397;-71
2023/03/29 11:07:44;;;;;;;5.77;2.83;;;15.60;59.50;;;;;;6055868;23;20405;-72
2023/03/29 11:10:33;;;;;;;5.47;3.57;;;15.40;58.90;;;;;;6035547;23;20445;-73
2023/03/29 11:13:26;;;;;;;6.10;3.00;;;15.20;60.40;;;;;;6055283;23;20505;-72
2023/03/29 11:16:04;;;;;;;9.07;4.37;;;15.30;60.10;;;;;;6054616;23;20454;-72
2023/03/29 11:19:26;;;;;;;6.10;3.40;;;15.20;59.50;;;;;;6068580;23;20362;-71
2023/03/29 11:22:27;;;;;;;4.50;3.60;;;15.10;61.10;;;;;;5956839;24;20412;-72
2023/03/29 11:25:08;;;;;;;5.83;2.87;;;15.20;61.50;;;;;;5999396;24;20397;-72
2023/03/29 11:27:45;;;;;;;5.60;3.70;;;15.20;61.40;;;;;;5948810;24;20393;-71
2023/03/29 11:30:24;;;;;;;6.10;3.67;;;15.10;60.90;;;;;;5973194;24;20422;-73
2023/03/29 11:33:23;;;;;;;5.23;3.43;;;15.10;61.60;;;;;;5987251;23;20440;-73
2023/03/29 11:36:11;;;;;;;4.90;3.30;;;15.20;61.60;;;;;;6033840;23;20391;-73
2023/03/29 11:38:49;;;;;;;6.40;3.37;;;15.30;61.00;;;;;;6035805;23;20367;-72
2023/03/29 11:41:24;;;;;;;5.33;3.30;;;15.30;59.90;;;;;;5973411;24;20472;-70
2023/03/29 11:43:57;;;;;;;4.73;3.40;;;15.40;60.70;;;;;;5980729;24;20421;-73
2023/03/29 11:46:32;;;;;;;4.40;2.93;;;15.70;60.50;;;;;;5982392;24;20473;-72
2023/03/29 11:49:05;;;;;;;5.83;3.50;;;15.90;59.90;;;;;;5958676;24;20368;-73
2023/03/29 11:51:40;;;;;;;5.10;3.43;;;16.10;59.10;;;;;;5950236;24;20442;-72
2023/03/29 11:54:27;;;;;;;6.30;3.30;;;16.20;59.30;;;;;;6029765;23;20416;-71
2023/03/29 11:56:55;;;;;;;4.60;3.30;;;16.30;58.40;;;;;;6027745;23;20403;-72
2023/03/29 11:59:31;;;;;;;4.57;3.03;;;16.30;58.40;;;;;;6037790;23;20383;-73
2023/03/29 12:02:21;;;;;;;4.87;3.53;;;16.30;58.30;;;;;;6009512;23;20419;-73
2023/03/29 12:04:53;;;;;;;6.30;3.37;;;16.40;58.20;;;;;;6028482;23;20401;-71
2023/03/29 12:07:26;;;;;;;5.27;3.50;;;16.50;57.90;;;;;;6062131;23;20390;-71
2023/03/29 12:10:15;;;;;;;4.10;2.30;;;16.30;58.80;;;;;;6069550;23;20702;-72
2023/03/29 12:13:04;;;;;;;3.20;2.10;;;16.40;59.20;;;;;;6101166;23;20490;-73
2023/03/29 12:15:37;;;;;;;2.27;2.03;;;16.60;59.80;;;;;;6148630;23;20419;-72
2023/03/29 12:18:31;;;;;;;3.87;2.70;;;16.70;60.20;;;;;;6102205;23;20364;-74
2023/03/29 12:21:00;;;;;;;3.77;2.73;;;16.90;59.40;;;;;;6120593;23;20384;-72
2023/03/29 12:23:30;;;;;;;6.90;2.50;;;17.10;58.90;;;;;;6140553;23;20376;-72
2023/03/29 12:25:56;;;;;;;3.63;2.47;;;17.10;58.50;;;;;;6145525;23;20400;-72
2023/03/29 12:28:49;;;;;;;3.53;2.03;;;17.20;58.00;;;;;;6121768;23;20445;-73
2023/03/29 12:31:27;;;;;;;5.30;2.67;;;17.20;57.50;;;;;;6121517;23;20178;-73
2023/03/29 12:34:13;;;;;;;3.50;2.87;;;17.20;57.20;;;;;;6119646;23;20415;-72
2023/03/29 12:37:36;;;;;;;4.47;1.63;;;17.20;58.20;;;;;;6147070;23;20398;-73
2023/03/29 12:40:24;;;;;;;2.73;1.80;;;17.50;57.00;;;;;;6166413;23;20832;-74
2023/03/29 12:43:21;;;;;;;4.03;2.20;;;17.50;57.10;;;;;;6147542;23;20426;-73
2023/03/29 12:46:26;;;;;;;3.90;1.83;;;17.50;56.90;;;;;;6037745;23;20451;-73
2023/03/29 12:49:13;;;;;;;2.53;1.80;;;17.40;57.30;;;;;;6125319;23;20398;-73
2023/03/29 12:51:42;;;;;;;4.20;1.70;;;17.60;57.50;;;;;;6149979;23;20406;-71
2023/03/29 12:54:14;;;;;;;7.30;1.97;;;17.80;57.30;;;;;;6158264;23;20446;-73
2023/03/29 12:56:55;;;;;;;4.37;1.90;;;17.90;56.20;;;;;;6146579;23;20413;-72
2023/03/29 12:59:37;;;;;;;3.20;2.10;;;17.80;57.50;;;;;;6155138;23;20481;-73
2023/03/29 13:02:12;;;;;;;5.77;3.00;;;17.90;56.40;;;;;;6119446;23;20448;-74
2023/03/29 13:04:41;;;;;;;2.60;1.43;;;17.80;56.30;;;;;;6089921;23;20386;-73
2023/03/29 13:07:14;;;;;;;2.30;1.70;;;17.70;56.60;;;;;;6092261;23;20462;-75
2023/03/29 13:09:50;;;;;;;2.63;1.77;;;17.70;56.20;;;;;;6089241;23;20415;-70
2023/03/29 13:12:27;;;;;;;2.97;1.70;;;17.70;56.40;;;;;;6091837;23;20426;-74
2023/03/29 13:14:57;;;;;;;4.07;2.33;;;17.60;56.30;;;;;;6089070;23;20434;-72
2023/03/29 13:17:44;;;;;;;2.53;1.50;;;17.50;56.60;;;;;;6066833;23;20393;-71
2023/03/29 13:20:45;;;;;;;6.43;1.90;;;17.70;57.00;;;;;;6064836;23;20390;-69
2023/03/29 13:23:42;;;;;;;6.47;1.40;;;17.90;56.20;;;;;;6090109;23;20398;-71
2023/03/29 13:26:15;;;;;;;4.87;2.20;;;17.90;56.50;;;;;;6066936;23;20440;-73
2023/03/29 13:29:07;;;;;;;2.77;1.30;;;17.90;56.00;;;;;;6088166;23;20411;-72
2023/03/29 13:31:52;;;;;;;3.00;1.60;;;17.80;55.50;;;;;;6125789;23;20390;-69
2023/03/29 13:34:29;;;;;;;2.80;1.60;;;17.80;56.00;;;;;;6091605;23;20446;-72